Ardara, Pennsylvania
Current Conditions -  °F | °C
As of 12:53 AM on Sunday 23 Nov 2014 (Local Time) from KAGC Reporting Station
Broken Clouds Broken Clouds  
Wind Chill:   Ceiling: 6500
Heat Index:   Visibility: 10mi
Dew Point: -4°   Wind: 12mph
Humidity: 41%   Direction: 190°S
Pressure: 30.1"   Gusts: NA
Location:  40.36°N, 79.73°W
Report Text: KAGC 230553Z 19010KT 10SM BKN065 BKN085 09/M04 A3010 RMK AO2 SLP203 T00891039 10100 20078 55003
Loading
Personal Weather Stations






























Interactive Weather Map New forecast layout! Learn more

10-Day Weather Forecast

Advertisements
Track Severe Weather on mobile